Wetterdaten: aktuell Samstag, 02.05.2026 23:01
Datum Zeit Temperatur Luftfeuchte Luftdruck Niederschlag Wind Windrichtung Windrichtung Sonnenschein Solar Taupunkt Windchill Windböen Empfang
02.05.2026 23:01 13,9 °C 62 % 1015,3 hPa 0,0 l/m² 0,0 km/h (0 Bft) N-NO 15 ° 0 min 0 W/m² 6,7 °C 13,9 °C 0,0 km/h (0 Bft) 100 %
02.05.2026 22:01 16,3 °C 54 % 1015,5 hPa 0,0 l/m² 0,0 km/h (0 Bft) NO 34 ° 0 min 0 W/m² 7,0 °C 16,3 °C 0,0 km/h (0 Bft) 100 %
02.05.2026 21:01 18,8 °C 46 % 1015,3 hPa 0,0 l/m² 1,1 km/h (1 Bft) N 5 ° 0 min 0 W/m² 6,9 °C 18,8 °C 3,2 km/h (1 Bft) 100 %
02.05.2026 20:01 22,2 °C 35 % 1015,2 hPa 0,0 l/m² 3,3 km/h (1 Bft) O 82 ° 27 min 53 W/m² 6,0 °C 22,2 °C 4,8 km/h (1 Bft) 100 %
02.05.2026 19:01 23,7 °C 32 % 1015,4 hPa 0,0 l/m² 3,2 km/h (1 Bft) NO 41 ° 56 min 160 W/m² 6,0 °C 23,7 °C 4,8 km/h (1 Bft) 100 %
02.05.2026 18:01 23,8 °C 32 % 1015,9 hPa 0,0 l/m² 0,0 km/h (0 Bft) W-NW 298 ° 60 min 343 W/m² 6,1 °C 23,8 °C 0,0 km/h (0 Bft) 100 %
02.05.2026 17:01 24,2 °C 33 % 1016,6 hPa 0,0 l/m² 1,9 km/h (1 Bft) S-SW 202 ° 60 min 531 W/m² 6,9 °C 24,2 °C 3,2 km/h (1 Bft) 100 %
02.05.2026 16:01 23,7 °C 35 % 1017,4 hPa 0,0 l/m² 3,2 km/h (1 Bft) S 169 ° 60 min 580 W/m² 7,3 °C 23,7 °C 3,2 km/h (1 Bft) 100 %
02.05.2026 15:01 23,7 °C 37 % 1018,2 hPa 0,0 l/m² 2,7 km/h (1 Bft) S 175 ° 60 min 710 W/m² 8,1 °C 23,7 °C 4,8 km/h (1 Bft) 93 %
02.05.2026 14:01 23,2 °C 36 % 1019,1 hPa 0,0 l/m² 6,6 km/h (2 Bft) O-SO 123 ° 60 min 761 W/m² 7,3 °C 23,1 °C 12,9 km/h (3 Bft) 96 %
02.05.2026 13:01 22,3 °C 41 % 1019,9 hPa 0,0 l/m² 6,6 km/h (2 Bft) S-SO 160 ° 60 min 802 W/m² 8,4 °C 22,2 °C 9,7 km/h (2 Bft) 100 %
02.05.2026 12:01 20,5 °C 47 % 1020,7 hPa 0,0 l/m² 5,1 km/h (1 Bft) SO 134 ° 60 min 756 W/m² 8,8 °C 20,5 °C 6,4 km/h (2 Bft) 100 %
02.05.2026 11:01 18,6 °C 51 % 1021,3 hPa 0,0 l/m² 4,0 km/h (1 Bft) O-SO 116 ° 60 min 738 W/m² 8,3 °C 18,6 °C 8,0 km/h (2 Bft) 100 %
02.05.2026 10:01 15,9 °C 53 % 1021,7 hPa 0,0 l/m² 3,7 km/h (1 Bft) S-SW 202 ° 60 min 545 W/m² 6,3 °C 15,9 °C 6,4 km/h (2 Bft) 100 %
02.05.2026 09:01 13,7 °C 58 % 1021,9 hPa 0,0 l/m² 1,7 km/h (1 Bft) S 184 ° 60 min 441 W/m² 5,6 °C 13,7 °C 3,2 km/h (1 Bft) 100 %
02.05.2026 08:01 10,1 °C 66 % 1022,1 hPa 0,0 l/m² 1,0 km/h (0 Bft) W 278 ° 42 min 278 W/m² 4,0 °C 10,1 °C 1,6 km/h (1 Bft) 100 %
02.05.2026 07:01 4,6 °C 81 % 1022,0 hPa 0,0 l/m² 0,0 km/h (0 Bft) W 278 ° 0 min 93 W/m² 1,6 °C 4,6 °C 0,0 km/h (0 Bft) 100 %
02.05.2026 06:01 4,3 °C 81 % 1021,7 hPa 0,0 l/m² 0,0 km/h (0 Bft) W 278 ° 0 min 9 W/m² 1,3 °C 4,3 °C 0,0 km/h (0 Bft) 100 %
02.05.2026 05:01 5,3 °C 77 % 1021,7 hPa 0,0 l/m² 0,8 km/h (0 Bft) NO 47 ° 0 min 0 W/m² 1,6 °C 5,3 °C 1,6 km/h (1 Bft) 96 %
02.05.2026 04:01 6,3 °C 73 % 1021,8 hPa 0,0 l/m² 0,0 km/h (0 Bft) NO 47 ° 0 min 0 W/m² 1,8 °C 6,3 °C 0,0 km/h (0 Bft) 100 %
02.05.2026 03:00 8,2 °C 66 % 1021,9 hPa 0,0 l/m² 0,3 km/h (0 Bft) NO 45 ° 0 min 0 W/m² 2,2 °C 8,2 °C 3,2 km/h (1 Bft) 100 %
02.05.2026 02:00 10,7 °C 57 % 1022,2 hPa 0,0 l/m² 0,0 km/h (0 Bft) NO 39 ° 0 min 0 W/m² 2,5 °C 10,7 °C 0,0 km/h (0 Bft) 100 %
02.05.2026 01:00 11,8 °C 54 % 1022,4 hPa 0,0 l/m² 7,6 km/h (2 Bft) N 9 ° 0 min 0 W/m² 2,8 °C 11,0 °C 9,7 km/h (2 Bft) 100 %
02.05.2026 00:00 12,8 °C 50 % 1022,5 hPa 0,0 l/m² 3,2 km/h (1 Bft) N-NO 19 ° 0 min 0 W/m² 2,6 °C 12,8 °C 4,8 km/h (1 Bft) 100 %
_ Min-Zeit 06:03 18:27 20:05 - 01:57 - - - - 05:31 06:08 01:57 03:22
Minimum _ 4,2 °C 29 % 1015,1 hPa - 0,0 km/h (0 Bft) - - - - 1,2 °C 4,2 °C 0,0 km/h (0 Bft) 87 %
_ Max-Zeit 18:33 06:23 00:01 00:00 14:02 - - 07:20 13:07 12:06 18:33 01:27 00:00
Maximum _ 25,1 °C 82 % 1022,6 hPa 0,0 l/m² 10,2 km/h
O-SO (2 Bft)
- - 1 min 854 W/m² 9,6 °C 25,1 °C 14,5 km/h
N-NO (3 Bft)
100 %
Durchschnitt _ 15,9 °C 52 % 1019,5 hPa #0,0 l/m² 2,3 km/h (1 Bft) S - #12:05 h 451 W/m² 5,3 °C 15,8 °C 4,0 km/h (1 Bft) 100 %